Notam

Notam - Ancona - LIPY

[Source: ADDS]
METAR
LIPY 192050Z 16003KT CAVOK 22/16 Q1019 =
TAF
LIPY 191700Z 1918/2018 VRB05KT CAVOK BECMG 2007/2010 03010KT BECMG 2016/2018 VRB05KT =
SR / SS: 03:26 / 18:52 UTC (Effemeridi 2018-06-19)

Abbiamo 324 visitatori e nessun utente online

 Quelli che il drone

   Strada della Marina, 1A

     60019 Senigallia AN, Italia

  Telefono: (+39) 338/6041090